sensor_id;sensor_type;location;lat;lon;timestamp;temperature;humidity
65406;DHT22;52016;51.228;-2.322;2022-11-15T00:02:02;11.50;80.10
65406;DHT22;52016;51.228;-2.322;2022-11-15T00:05:46;11.60;80.00
65406;DHT22;52016;51.228;-2.322;2022-11-15T00:09:28;11.60;80.00
65406;DHT22;52016;51.228;-2.322;2022-11-15T00:13:12;11.60;80.10
65406;DHT22;52016;51.228;-2.322;2022-11-15T00:16:54;11.60;80.20
65406;DHT22;52016;51.228;-2.322;2022-11-15T00:20:36;11.60;80.30
65406;DHT22;52016;51.228;-2.322;2022-11-15T00:24:17;11.70;80.40
65406;DHT22;52016;51.228;-2.322;2022-11-15T00:28:00;11.70;80.40
65406;DHT22;52016;51.228;-2.322;2022-11-15T00:31:42;11.80;80.40
65406;DHT22;52016;51.228;-2.322;2022-11-15T00:35:23;11.80;80.50
65406;DHT22;52016;51.228;-2.322;2022-11-15T00:39:05;11.80;80.50
65406;DHT22;52016;51.228;-2.322;2022-11-15T00:42:47;11.90;80.50
65406;DHT22;52016;51.228;-2.322;2022-11-15T00:46:29;11.90;80.50
65406;DHT22;52016;51.228;-2.322;2022-11-15T00:50:11;11.90;80.50
65406;DHT22;52016;51.228;-2.322;2022-11-15T00:53:56;12.00;80.50
65406;DHT22;52016;51.228;-2.322;2022-11-15T00:57:37;12.00;80.40
65406;DHT22;52016;51.228;-2.322;2022-11-15T01:01:19;12.10;80.40
65406;DHT22;52016;51.228;-2.322;2022-11-15T01:05:01;12.10;80.40
65406;DHT22;52016;51.228;-2.322;2022-11-15T01:08:43;12.10;80.30
65406;DHT22;52016;51.228;-2.322;2022-11-15T01:12:25;12.20;80.40
65406;DHT22;52016;51.228;-2.322;2022-11-15T01:16:09;12.20;80.30
65406;DHT22;52016;51.228;-2.322;2022-11-15T01:19:51;12.30;80.40
65406;DHT22;52016;51.228;-2.322;2022-11-15T01:23:33;12.30;80.50
65406;DHT22;52016;51.228;-2.322;2022-11-15T01:27:15;12.20;80.60
65406;DHT22;52016;51.228;-2.322;2022-11-15T01:30:59;12.30;80.80
65406;DHT22;52016;51.228;-2.322;2022-11-15T01:34:41;12.30;80.90
65406;DHT22;52016;51.228;-2.322;2022-11-15T01:38:22;12.20;81.10
65406;DHT22;52016;51.228;-2.322;2022-11-15T01:42:04;12.20;81.20
65406;DHT22;52016;51.228;-2.322;2022-11-15T01:45:58;12.20;81.30
65406;DHT22;52016;51.228;-2.322;2022-11-15T01:53:34;12.20;81.90
65406;DHT22;52016;51.228;-2.322;2022-11-15T01:57:16;12.20;82.00
65406;DHT22;52016;51.228;-2.322;2022-11-15T02:00:58;12.10;82.30
65406;DHT22;52016;51.228;-2.322;2022-11-15T02:04:42;12.10;82.00
65406;DHT22;52016;51.228;-2.322;2022-11-15T02:08:24;12.20;82.10
65406;DHT22;52016;51.228;-2.322;2022-11-15T02:12:08;12.20;81.90
65406;DHT22;52016;51.228;-2.322;2022-11-15T02:20:08;12.30;82.10
65406;DHT22;52016;51.228;-2.322;2022-11-15T02:33:26;12.20;82.60
65406;DHT22;52016;51.228;-2.322;2022-11-15T02:44:44;12.10;82.70
65406;DHT22;52016;51.228;-2.322;2022-11-15T02:48:27;12.10;82.90
65406;DHT22;52016;51.228;-2.322;2022-11-15T02:52:17;12.10;84.10
65406;DHT22;52016;51.228;-2.322;2022-11-15T02:55:59;12.10;83.80
65406;DHT22;52016;51.228;-2.322;2022-11-15T03:03:56;12.10;84.60
65406;DHT22;52016;51.228;-2.322;2022-11-15T03:07:51;12.10;85.40
65406;DHT22;52016;51.228;-2.322;2022-11-15T03:11:46;12.10;84.50
65406;DHT22;52016;51.228;-2.322;2022-11-15T03:15:41;12.00;85.20
65406;DHT22;52016;51.228;-2.322;2022-11-15T03:19:54;12.00;85.50
65406;DHT22;52016;51.228;-2.322;2022-11-15T03:23:36;12.00;85.80
65406;DHT22;52016;51.228;-2.322;2022-11-15T03:27:22;12.00;85.40
65406;DHT22;52016;51.228;-2.322;2022-11-15T03:31:05;12.00;85.60
65406;DHT22;52016;51.228;-2.322;2022-11-15T03:35:20;12.00;85.00
65406;DHT22;52016;51.228;-2.322;2022-11-15T03:39:05;12.00;85.60
65406;DHT22;52016;51.228;-2.322;2022-11-15T03:50:56;12.10;85.70
65406;DHT22;52016;51.228;-2.322;2022-11-15T03:54:49;12.10;85.80
65406;DHT22;52016;51.228;-2.322;2022-11-15T03:58:31;12.10;85.80
65406;DHT22;52016;51.228;-2.322;2022-11-15T04:02:13;12.10;86.70
65406;DHT22;52016;51.228;-2.322;2022-11-15T04:05:54;12.10;86.00
65406;DHT22;52016;51.228;-2.322;2022-11-15T04:09:36;12.10;86.10
65406;DHT22;52016;51.228;-2.322;2022-11-15T04:13:38;12.10;86.00
65406;DHT22;52016;51.228;-2.322;2022-11-15T04:17:20;12.10;86.00
65406;DHT22;52016;51.228;-2.322;2022-11-15T04:21:01;12.20;86.50
65406;DHT22;52016;51.228;-2.322;2022-11-15T04:25:02;12.10;86.40
65406;DHT22;52016;51.228;-2.322;2022-11-15T04:28:44;12.20;86.10
65406;DHT22;52016;51.228;-2.322;2022-11-15T04:33:04;12.20;86.70
65406;DHT22;52016;51.228;-2.322;2022-11-15T04:36:46;12.20;86.50
65406;DHT22;52016;51.228;-2.322;2022-11-15T04:40:46;12.20;86.50
65406;DHT22;52016;51.228;-2.322;2022-11-15T04:44:28;12.20;86.50
65406;DHT22;52016;51.228;-2.322;2022-11-15T04:48:10;12.20;86.80
65406;DHT22;52016;51.228;-2.322;2022-11-15T04:51:52;12.20;86.60
65406;DHT22;52016;51.228;-2.322;2022-11-15T04:55:33;12.20;86.70
65406;DHT22;52016;51.228;-2.322;2022-11-15T04:59:15;12.20;86.50
65406;DHT22;52016;51.228;-2.322;2022-11-15T05:02:57;12.30;86.80
65406;DHT22;52016;51.228;-2.322;2022-11-15T05:06:59;12.30;86.60
65406;DHT22;52016;51.228;-2.322;2022-11-15T05:10:41;12.30;86.60
65406;DHT22;52016;51.228;-2.322;2022-11-15T05:14:22;12.30;87.20
65406;DHT22;52016;51.228;-2.322;2022-11-15T05:18:04;12.30;86.80
65406;DHT22;52016;51.228;-2.322;2022-11-15T05:21:47;12.30;86.90
65406;DHT22;52016;51.228;-2.322;2022-11-15T05:25:28;12.30;86.40
65406;DHT22;52016;51.228;-2.322;2022-11-15T05:29:10;12.30;86.70
65406;DHT22;52016;51.228;-2.322;2022-11-15T05:32:53;12.30;86.60
65406;DHT22;52016;51.228;-2.322;2022-11-15T05:36:41;12.30;86.90
65406;DHT22;52016;51.228;-2.322;2022-11-15T05:40:24;12.30;86.90
65406;DHT22;52016;51.228;-2.322;2022-11-15T05:44:08;12.30;87.00
65406;DHT22;52016;51.228;-2.322;2022-11-15T05:47:51;12.30;86.80
65406;DHT22;52016;51.228;-2.322;2022-11-15T05:51:35;12.40;86.80
65406;DHT22;52016;51.228;-2.322;2022-11-15T05:55:17;12.30;87.00
65406;DHT22;52016;51.228;-2.322;2022-11-15T05:58:59;12.30;86.80
65406;DHT22;52016;51.228;-2.322;2022-11-15T06:02:41;12.40;86.90
65406;DHT22;52016;51.228;-2.322;2022-11-15T06:06:23;12.40;87.10
65406;DHT22;52016;51.228;-2.322;2022-11-15T06:10:05;12.40;87.00
65406;DHT22;52016;51.228;-2.322;2022-11-15T06:13:46;12.40;87.20
65406;DHT22;52016;51.228;-2.322;2022-11-15T06:17:29;12.40;87.10
65406;DHT22;52016;51.228;-2.322;2022-11-15T06:21:10;12.40;87.10
65406;DHT22;52016;51.228;-2.322;2022-11-15T06:24:52;12.40;87.30
65406;DHT22;52016;51.228;-2.322;2022-11-15T06:28:34;12.40;87.80
65406;DHT22;52016;51.228;-2.322;2022-11-15T06:32:16;12.40;87.50
65406;DHT22;52016;51.228;-2.322;2022-11-15T06:36:05;12.40;87.50
65406;DHT22;52016;51.228;-2.322;2022-11-15T06:39:47;12.50;87.40
65406;DHT22;52016;51.228;-2.322;2022-11-15T06:43:29;12.50;87.30
65406;DHT22;52016;51.228;-2.322;2022-11-15T06:47:11;12.60;87.30
65406;DHT22;52016;51.228;-2.322;2022-11-15T06:50:55;12.60;87.50
65406;DHT22;52016;51.228;-2.322;2022-11-15T06:54:37;12.60;87.60
65406;DHT22;52016;51.228;-2.322;2022-11-15T06:58:20;12.60;87.60
65406;DHT22;52016;51.228;-2.322;2022-11-15T07:02:02;12.60;87.60
65406;DHT22;52016;51.228;-2.322;2022-11-15T07:05:55;12.70;87.70
65406;DHT22;52016;51.228;-2.322;2022-11-15T07:09:37;12.80;87.60
65406;DHT22;52016;51.228;-2.322;2022-11-15T07:13:18;12.70;87.70
65406;DHT22;52016;51.228;-2.322;2022-11-15T07:17:03;12.70;87.60
65406;DHT22;52016;51.228;-2.322;2022-11-15T07:20:46;12.80;87.90
65406;DHT22;52016;51.228;-2.322;2022-11-15T07:24:28;12.80;87.70
65406;DHT22;52016;51.228;-2.322;2022-11-15T07:28:10;12.70;88.10
65406;DHT22;52016;51.228;-2.322;2022-11-15T07:31:52;12.70;87.80
65406;DHT22;52016;51.228;-2.322;2022-11-15T07:35:33;12.80;88.20
65406;DHT22;52016;51.228;-2.322;2022-11-15T07:39:15;12.70;87.90
65406;DHT22;52016;51.228;-2.322;2022-11-15T07:43:05;12.80;88.00
65406;DHT22;52016;51.228;-2.322;2022-11-15T07:46:48;12.80;87.90
65406;DHT22;52016;51.228;-2.322;2022-11-15T07:50:30;12.80;88.00
65406;DHT22;52016;51.228;-2.322;2022-11-15T07:54:12;12.80;88.20
65406;DHT22;52016;51.228;-2.322;2022-11-15T07:58:00;12.80;87.90
65406;DHT22;52016;51.228;-2.322;2022-11-15T08:01:43;12.80;87.90
65406;DHT22;52016;51.228;-2.322;2022-11-15T08:05:25;12.80;87.90
65406;DHT22;52016;51.228;-2.322;2022-11-15T08:09:06;12.80;87.80
65406;DHT22;52016;51.228;-2.322;2022-11-15T08:12:55;12.90;88.30
65406;DHT22;52016;51.228;-2.322;2022-11-15T08:16:37;12.90;88.00
65406;DHT22;52016;51.228;-2.322;2022-11-15T08:20:19;12.90;88.20
65406;DHT22;52016;51.228;-2.322;2022-11-15T08:24:01;12.90;88.20
65406;DHT22;52016;51.228;-2.322;2022-11-15T08:27:43;12.90;88.20
65406;DHT22;52016;51.228;-2.322;2022-11-15T08:31:25;12.90;88.10
65406;DHT22;52016;51.228;-2.322;2022-11-15T08:35:07;12.90;88.10
65406;DHT22;52016;51.228;-2.322;2022-11-15T08:38:49;13.00;88.20
65406;DHT22;52016;51.228;-2.322;2022-11-15T08:42:30;13.00;88.00
65406;DHT22;52016;51.228;-2.322;2022-11-15T08:46:13;13.00;88.00
65406;DHT22;52016;51.228;-2.322;2022-11-15T08:49:55;13.10;88.00
65406;DHT22;52016;51.228;-2.322;2022-11-15T08:53:37;13.10;88.10
65406;DHT22;52016;51.228;-2.322;2022-11-15T08:57:18;13.10;88.00
65406;DHT22;52016;51.228;-2.322;2022-11-15T09:01:00;13.10;87.90
65406;DHT22;52016;51.228;-2.322;2022-11-15T09:04:43;13.10;87.90
65406;DHT22;52016;51.228;-2.322;2022-11-15T09:08:28;13.10;87.80
65406;DHT22;52016;51.228;-2.322;2022-11-15T09:12:28;13.10;87.80
65406;DHT22;52016;51.228;-2.322;2022-11-15T09:16:10;13.10;87.70
65406;DHT22;52016;51.228;-2.322;2022-11-15T09:19:53;13.10;87.90
65406;DHT22;52016;51.228;-2.322;2022-11-15T09:23:35;13.10;87.90
65406;DHT22;52016;51.228;-2.322;2022-11-15T09:27:17;13.10;87.80
65406;DHT22;52016;51.228;-2.322;2022-11-15T09:31:04;13.00;88.00
65406;DHT22;52016;51.228;-2.322;2022-11-15T09:34:46;13.00;87.90
65406;DHT22;52016;51.228;-2.322;2022-11-15T09:38:28;13.00;88.00
65406;DHT22;52016;51.228;-2.322;2022-11-15T09:49:53;13.10;87.80
65406;DHT22;52016;51.228;-2.322;2022-11-15T09:54:25;13.10;87.70
65406;DHT22;52016;51.228;-2.322;2022-11-15T10:06:04;12.40;86.00
65406;DHT22;52016;51.228;-2.322;2022-11-15T10:09:57;12.30;86.50
65406;DHT22;52016;51.228;-2.322;2022-11-15T10:13:45;12.20;86.40
65406;DHT22;52016;51.228;-2.322;2022-11-15T10:21:40;12.00;86.50
65406;DHT22;52016;51.228;-2.322;2022-11-15T10:25:30;11.90;86.40
65406;DHT22;52016;51.228;-2.322;2022-11-15T10:29:20;11.80;86.30
65406;DHT22;52016;51.228;-2.322;2022-11-15T10:33:27;11.80;86.50
65406;DHT22;52016;51.228;-2.322;2022-11-15T10:37:11;11.70;86.20
65406;DHT22;52016;51.228;-2.322;2022-11-15T10:41:06;11.70;86.40
65406;DHT22;52016;51.228;-2.322;2022-11-15T10:44:49;11.60;86.40
65406;DHT22;52016;51.228;-2.322;2022-11-15T10:48:30;11.60;86.50
65406;DHT22;52016;51.228;-2.322;2022-11-15T10:52:18;11.70;86.50
65406;DHT22;52016;51.228;-2.322;2022-11-15T10:56:07;11.60;86.60
65406;DHT22;52016;51.228;-2.322;2022-11-15T11:00:05;11.70;86.80
65406;DHT22;52016;51.228;-2.322;2022-11-15T11:07:41;11.80;86.60
65406;DHT22;52016;51.228;-2.322;2022-11-15T11:11:47;11.90;86.60
65406;DHT22;52016;51.228;-2.322;2022-11-15T11:15:30;11.90;86.40
65406;DHT22;52016;51.228;-2.322;2022-11-15T11:35:31;12.40;86.30
65406;DHT22;52016;51.228;-2.322;2022-11-15T11:39:24;12.60;86.90
65406;DHT22;52016;51.228;-2.322;2022-11-15T11:47:22;12.90;86.70
65406;DHT22;52016;51.228;-2.322;2022-11-15T11:51:13;12.90;86.60
65406;DHT22;52016;51.228;-2.322;2022-11-15T11:55:04;13.00;86.50
65406;DHT22;52016;51.228;-2.322;2022-11-15T11:58:54;13.10;85.00
65406;DHT22;52016;51.228;-2.322;2022-11-15T12:02:43;13.30;86.30
65406;DHT22;52016;51.228;-2.322;2022-11-15T12:06:36;13.40;86.00
65406;DHT22;52016;51.228;-2.322;2022-11-15T12:10:29;13.50;86.10
65406;DHT22;52016;51.228;-2.322;2022-11-15T12:18:22;13.50;83.70
65406;DHT22;52016;51.228;-2.322;2022-11-15T12:22:23;13.40;84.20
65406;DHT22;52016;51.228;-2.322;2022-11-15T12:26:27;13.30;83.10
65406;DHT22;52016;51.228;-2.322;2022-11-15T12:30:15;13.10;83.20
65406;DHT22;52016;51.228;-2.322;2022-11-15T12:33:58;13.10;84.20
65406;DHT22;52016;51.228;-2.322;2022-11-15T12:37:52;13.20;84.30
65406;DHT22;52016;51.228;-2.322;2022-11-15T12:45:44;13.10;83.70
65406;DHT22;52016;51.228;-2.322;2022-11-15T13:00:49;12.90;83.50
65406;DHT22;52016;51.228;-2.322;2022-11-15T13:04:30;12.90;83.20
65406;DHT22;52016;51.228;-2.322;2022-11-15T13:08:51;12.70;83.30
65406;DHT22;52016;51.228;-2.322;2022-11-15T13:16:20;12.60;83.60
65406;DHT22;52016;51.228;-2.322;2022-11-15T13:23:54;12.80;83.90
65406;DHT22;52016;51.228;-2.322;2022-11-15T13:27:36;12.80;83.90
65406;DHT22;52016;51.228;-2.322;2022-11-15T13:35:09;13.00;84.30
65406;DHT22;52016;51.228;-2.322;2022-11-15T13:39:01;13.10;84.30
65406;DHT22;52016;51.228;-2.322;2022-11-15T13:42:43;13.10;84.10
65406;DHT22;52016;51.228;-2.322;2022-11-15T13:50:12;13.20;84.10
65406;DHT22;52016;51.228;-2.322;2022-11-15T13:57:57;13.90;83.70
65406;DHT22;52016;51.228;-2.322;2022-11-15T14:01:41;14.00;83.80
65406;DHT22;52016;51.228;-2.322;2022-11-15T14:05:24;14.00;83.30
65406;DHT22;52016;51.228;-2.322;2022-11-15T14:12:51;13.90;83.50
65406;DHT22;52016;51.228;-2.322;2022-11-15T14:16:42;13.90;83.10
65406;DHT22;52016;51.228;-2.322;2022-11-15T14:24:18;13.60;82.90
65406;DHT22;52016;51.228;-2.322;2022-11-15T14:32:25;13.60;82.10
65406;DHT22;52016;51.228;-2.322;2022-11-15T14:36:20;13.60;81.70
65406;DHT22;52016;51.228;-2.322;2022-11-15T14:40:04;13.40;82.00
65406;DHT22;52016;51.228;-2.322;2022-11-15T14:43:46;13.40;82.50
65406;DHT22;52016;51.228;-2.322;2022-11-15T14:47:28;13.30;82.50
65406;DHT22;52016;51.228;-2.322;2022-11-15T14:51:15;13.10;82.20
65406;DHT22;52016;51.228;-2.322;2022-11-15T14:54:57;13.10;82.20
65406;DHT22;52016;51.228;-2.322;2022-11-15T14:58:40;13.00;82.10
65406;DHT22;52016;51.228;-2.322;2022-11-15T15:02:26;12.90;82.00
65406;DHT22;52016;51.228;-2.322;2022-11-15T15:06:08;12.80;81.60
65406;DHT22;52016;51.228;-2.322;2022-11-15T15:09:58;12.80;81.70
65406;DHT22;52016;51.228;-2.322;2022-11-15T15:13:59;12.60;81.90
65406;DHT22;52016;51.228;-2.322;2022-11-15T15:17:43;12.50;81.80
65406;DHT22;52016;51.228;-2.322;2022-11-15T15:21:28;12.40;81.70
65406;DHT22;52016;51.228;-2.322;2022-11-15T15:29:03;12.10;82.00
65406;DHT22;52016;51.228;-2.322;2022-11-15T15:32:45;12.00;82.10
65406;DHT22;52016;51.228;-2.322;2022-11-15T15:36:26;11.90;82.30
65406;DHT22;52016;51.228;-2.322;2022-11-15T15:40:16;11.90;82.30
65406;DHT22;52016;51.228;-2.322;2022-11-15T15:43:58;11.80;82.30
65406;DHT22;52016;51.228;-2.322;2022-11-15T15:47:40;11.80;82.40
65406;DHT22;52016;51.228;-2.322;2022-11-15T15:51:22;11.80;82.60
65406;DHT22;52016;51.228;-2.322;2022-11-15T15:55:04;11.70;82.60
65406;DHT22;52016;51.228;-2.322;2022-11-15T15:58:45;11.70;82.70
65406;DHT22;52016;51.228;-2.322;2022-11-15T16:02:27;11.60;82.70
65406;DHT22;52016;51.228;-2.322;2022-11-15T16:10:25;11.60;82.60
65406;DHT22;52016;51.228;-2.322;2022-11-15T16:14:08;11.50;82.50
65406;DHT22;52016;51.228;-2.322;2022-11-15T16:17:52;11.40;82.50
65406;DHT22;52016;51.228;-2.322;2022-11-15T16:21:34;11.30;82.60
65406;DHT22;52016;51.228;-2.322;2022-11-15T16:25:16;11.20;82.60
65406;DHT22;52016;51.228;-2.322;2022-11-15T16:28:57;11.10;82.50
65406;DHT22;52016;51.228;-2.322;2022-11-15T16:32:40;11.10;82.60
65406;DHT22;52016;51.228;-2.322;2022-11-15T16:36:24;11.00;82.60
65406;DHT22;52016;51.228;-2.322;2022-11-15T16:43:59;10.90;82.50
65406;DHT22;52016;51.228;-2.322;2022-11-15T16:47:41;10.80;82.50
65406;DHT22;52016;51.228;-2.322;2022-11-15T16:51:23;10.70;82.50
65406;DHT22;52016;51.228;-2.322;2022-11-15T16:55:05;10.60;82.60
65406;DHT22;52016;51.228;-2.322;2022-11-15T16:58:47;10.60;82.70
65406;DHT22;52016;51.228;-2.322;2022-11-15T17:02:29;10.50;82.70
65406;DHT22;52016;51.228;-2.322;2022-11-15T17:06:12;10.50;82.70
65406;DHT22;52016;51.228;-2.322;2022-11-15T17:09:54;10.50;82.70
65406;DHT22;52016;51.228;-2.322;2022-11-15T17:13:36;10.50;82.60
65406;DHT22;52016;51.228;-2.322;2022-11-15T17:17:18;10.40;82.50
65406;DHT22;52016;51.228;-2.322;2022-11-15T17:21:09;10.40;82.60
65406;DHT22;52016;51.228;-2.322;2022-11-15T17:24:52;10.40;82.60
65406;DHT22;52016;51.228;-2.322;2022-11-15T17:28:34;10.40;82.60
65406;DHT22;52016;51.228;-2.322;2022-11-15T17:32:16;10.40;82.70
65406;DHT22;52016;51.228;-2.322;2022-11-15T17:35:59;10.40;82.70
65406;DHT22;52016;51.228;-2.322;2022-11-15T17:39:41;10.40;82.60
65406;DHT22;52016;51.228;-2.322;2022-11-15T17:43:23;10.30;82.60
65406;DHT22;52016;51.228;-2.322;2022-11-15T17:47:04;10.30;82.50
65406;DHT22;52016;51.228;-2.322;2022-11-15T17:50:57;10.20;82.50
65406;DHT22;52016;51.228;-2.322;2022-11-15T17:54:39;10.20;82.50
65406;DHT22;52016;51.228;-2.322;2022-11-15T17:58:21;10.10;82.50
65406;DHT22;52016;51.228;-2.322;2022-11-15T18:02:03;10.10;82.50
65406;DHT22;52016;51.228;-2.322;2022-11-15T18:05:46;10.00;82.60
65406;DHT22;52016;51.228;-2.322;2022-11-15T18:09:28;10.00;82.80
65406;DHT22;52016;51.228;-2.322;2022-11-15T18:13:10;9.90;82.90
65406;DHT22;52016;51.228;-2.322;2022-11-15T18:16:51;10.00;83.00
65406;DHT22;52016;51.228;-2.322;2022-11-15T18:20:35;9.90;82.90
65406;DHT22;52016;51.228;-2.322;2022-11-15T18:24:17;10.00;83.00
65406;DHT22;52016;51.228;-2.322;2022-11-15T18:27:59;9.90;83.00
65406;DHT22;52016;51.228;-2.322;2022-11-15T18:31:41;9.90;83.00
65406;DHT22;52016;51.228;-2.322;2022-11-15T18:35:28;9.90;82.80
65406;DHT22;52016;51.228;-2.322;2022-11-15T18:39:10;9.90;82.70
65406;DHT22;52016;51.228;-2.322;2022-11-15T18:42:57;9.80;82.70
65406;DHT22;52016;51.228;-2.322;2022-11-15T18:46:38;9.80;82.80
65406;DHT22;52016;51.228;-2.322;2022-11-15T18:50:20;9.80;82.80
65406;DHT22;52016;51.228;-2.322;2022-11-15T18:54:03;9.70;82.70
65406;DHT22;52016;51.228;-2.322;2022-11-15T18:57:45;9.70;82.70
65406;DHT22;52016;51.228;-2.322;2022-11-15T19:01:31;9.60;82.70
65406;DHT22;52016;51.228;-2.322;2022-11-15T19:05:14;9.50;82.60
65406;DHT22;52016;51.228;-2.322;2022-11-15T19:08:59;9.50;82.50
65406;DHT22;52016;51.228;-2.322;2022-11-15T19:12:41;9.40;82.50
65406;DHT22;52016;51.228;-2.322;2022-11-15T19:16:23;9.40;82.50
65406;DHT22;52016;51.228;-2.322;2022-11-15T19:20:05;9.30;82.40
65406;DHT22;52016;51.228;-2.322;2022-11-15T19:23:47;9.30;82.40
65406;DHT22;52016;51.228;-2.322;2022-11-15T19:27:29;9.30;82.40
65406;DHT22;52016;51.228;-2.322;2022-11-15T19:31:17;9.20;82.40
65406;DHT22;52016;51.228;-2.322;2022-11-15T19:34:59;9.10;82.40
65406;DHT22;52016;51.228;-2.322;2022-11-15T19:38:41;9.10;82.40
65406;DHT22;52016;51.228;-2.322;2022-11-15T19:42:23;9.10;82.50
65406;DHT22;52016;51.228;-2.322;2022-11-15T19:46:08;9.00;82.60
65406;DHT22;52016;51.228;-2.322;2022-11-15T19:49:50;8.90;82.70
65406;DHT22;52016;51.228;-2.322;2022-11-15T19:53:32;8.90;82.60
65406;DHT22;52016;51.228;-2.322;2022-11-15T19:57:16;8.90;82.60
65406;DHT22;52016;51.228;-2.322;2022-11-15T20:01:20;8.90;82.80
65406;DHT22;52016;51.228;-2.322;2022-11-15T20:05:03;8.90;82.80
65406;DHT22;52016;51.228;-2.322;2022-11-15T20:08:45;9.00;82.30
65406;DHT22;52016;51.228;-2.322;2022-11-15T20:12:28;9.00;82.50
65406;DHT22;52016;51.228;-2.322;2022-11-15T20:16:20;9.00;82.40
65406;DHT22;52016;51.228;-2.322;2022-11-15T20:20:03;9.00;82.10
65406;DHT22;52016;51.228;-2.322;2022-11-15T20:23:45;9.00;82.30
65406;DHT22;52016;51.228;-2.322;2022-11-15T20:27:28;9.10;82.10
65406;DHT22;52016;51.228;-2.322;2022-11-15T20:31:11;9.00;82.10
65406;DHT22;52016;51.228;-2.322;2022-11-15T20:34:53;9.00;81.90
65406;DHT22;52016;51.228;-2.322;2022-11-15T20:38:34;9.00;81.90
65406;DHT22;52016;51.228;-2.322;2022-11-15T20:42:16;8.90;81.90
65406;DHT22;52016;51.228;-2.322;2022-11-15T20:45:58;9.00;82.00
65406;DHT22;52016;51.228;-2.322;2022-11-15T20:49:40;8.90;82.00
65406;DHT22;52016;51.228;-2.322;2022-11-15T20:53:22;8.90;82.20
65406;DHT22;52016;51.228;-2.322;2022-11-15T20:57:07;8.90;82.20
65406;DHT22;52016;51.228;-2.322;2022-11-15T21:00:49;8.90;82.20
65406;DHT22;52016;51.228;-2.322;2022-11-15T21:04:31;8.90;82.30
65406;DHT22;52016;51.228;-2.322;2022-11-15T21:08:13;8.90;82.20
65406;DHT22;52016;51.228;-2.322;2022-11-15T21:11:55;8.90;82.00
65406;DHT22;52016;51.228;-2.322;2022-11-15T21:15:54;8.90;82.00
65406;DHT22;52016;51.228;-2.322;2022-11-15T21:19:37;8.90;81.90
65406;DHT22;52016;51.228;-2.322;2022-11-15T21:23:19;8.90;81.70
65406;DHT22;52016;51.228;-2.322;2022-11-15T21:27:02;8.80;81.80
65406;DHT22;52016;51.228;-2.322;2022-11-15T21:30:54;8.90;81.90
65406;DHT22;52016;51.228;-2.322;2022-11-15T21:34:36;8.80;81.90
65406;DHT22;52016;51.228;-2.322;2022-11-15T21:38:18;8.80;82.00
65406;DHT22;52016;51.228;-2.322;2022-11-15T21:42:00;8.90;82.10
65406;DHT22;52016;51.228;-2.322;2022-11-15T21:45:42;8.80;82.10
65406;DHT22;52016;51.228;-2.322;2022-11-15T21:49:24;8.90;82.10
65406;DHT22;52016;51.228;-2.322;2022-11-15T21:53:06;8.90;82.10
65406;DHT22;52016;51.228;-2.322;2022-11-15T21:56:48;8.90;82.20
65406;DHT22;52016;51.228;-2.322;2022-11-15T22:00:29;8.90;82.20
65406;DHT22;52016;51.228;-2.322;2022-11-15T22:04:30;8.90;82.00
65406;DHT22;52016;51.228;-2.322;2022-11-15T22:08:12;8.90;81.90
65406;DHT22;52016;51.228;-2.322;2022-11-15T22:11:53;8.90;82.00
65406;DHT22;52016;51.228;-2.322;2022-11-15T22:15:35;9.00;82.20
65406;DHT22;52016;51.228;-2.322;2022-11-15T22:19:17;9.00;82.20
65406;DHT22;52016;51.228;-2.322;2022-11-15T22:23:00;9.00;82.30
65406;DHT22;52016;51.228;-2.322;2022-11-15T22:26:43;9.00;82.40
65406;DHT22;52016;51.228;-2.322;2022-11-15T22:30:24;9.10;82.30
65406;DHT22;52016;51.228;-2.322;2022-11-15T22:34:06;9.10;82.20
65406;DHT22;52016;51.228;-2.322;2022-11-15T22:37:48;9.10;82.10
65406;DHT22;52016;51.228;-2.322;2022-11-15T22:41:30;9.10;82.20
65406;DHT22;52016;51.228;-2.322;2022-11-15T22:45:12;9.00;82.30
65406;DHT22;52016;51.228;-2.322;2022-11-15T22:48:54;9.00;82.30
65406;DHT22;52016;51.228;-2.322;2022-11-15T22:52:41;9.00;82.40
65406;DHT22;52016;51.228;-2.322;2022-11-15T22:56:23;8.90;82.40
65406;DHT22;52016;51.228;-2.322;2022-11-15T23:00:08;8.90;82.50
65406;DHT22;52016;51.228;-2.322;2022-11-15T23:03:51;8.80;82.60
65406;DHT22;52016;51.228;-2.322;2022-11-15T23:07:33;8.80;82.70
65406;DHT22;52016;51.228;-2.322;2022-11-15T23:11:15;8.80;82.70
65406;DHT22;52016;51.228;-2.322;2022-11-15T23:15:15;8.70;82.80
65406;DHT22;52016;51.228;-2.322;2022-11-15T23:18:58;8.70;82.80
65406;DHT22;52016;51.228;-2.322;2022-11-15T23:22:40;8.70;82.80
65406;DHT22;52016;51.228;-2.322;2022-11-15T23:26:28;8.70;82.90
65406;DHT22;52016;51.228;-2.322;2022-11-15T23:30:10;8.60;82.90
65406;DHT22;52016;51.228;-2.322;2022-11-15T23:34:11;8.60;82.90
65406;DHT22;52016;51.228;-2.322;2022-11-15T23:37:52;8.60;83.00
65406;DHT22;52016;51.228;-2.322;2022-11-15T23:41:34;8.60;83.10
65406;DHT22;52016;51.228;-2.322;2022-11-15T23:45:17;8.60;83.20
65406;DHT22;52016;51.228;-2.322;2022-11-15T23:48:59;8.60;83.00
65406;DHT22;52016;51.228;-2.322;2022-11-15T23:52:41;8.60;83.00
65406;DHT22;52016;51.228;-2.322;2022-11-15T23:56:23;8.60;83.00
